sensor_id;sensor_type;location;lat;lon;timestamp;pressure;altitude;pressure_sealevel;temperature;humidity
68941;BME280;55982;51.476;7.552;2023-01-29T00:01:12;101109.88;;;-4.00;100.00
68941;BME280;55982;51.476;7.552;2023-01-29T00:03:37;101108.19;;;-4.00;100.00
68941;BME280;55982;51.476;7.552;2023-01-29T00:06:05;101102.88;;;-3.85;100.00
68941;BME280;55982;51.476;7.552;2023-01-29T00:08:37;101099.59;;;-3.83;100.00
68941;BME280;55982;51.476;7.552;2023-01-29T00:11:04;101106.19;;;-3.68;100.00
68941;BME280;55982;51.476;7.552;2023-01-29T00:13:30;101100.13;;;-3.71;100.00
68941;BME280;55982;51.476;7.552;2023-01-29T00:15:57;101092.94;;;-3.79;100.00
68941;BME280;55982;51.476;7.552;2023-01-29T00:18:23;101091.84;;;-3.84;100.00
68941;BME280;55982;51.476;7.552;2023-01-29T00:20:49;101088.78;;;-3.77;100.00
68941;BME280;55982;51.476;7.552;2023-01-29T00:23:14;101079.28;;;-3.80;100.00
68941;BME280;55982;51.476;7.552;2023-01-29T00:25:40;101087.00;;;-3.78;100.00
68941;BME280;55982;51.476;7.552;2023-01-29T00:28:06;101082.22;;;-3.71;100.00
68941;BME280;55982;51.476;7.552;2023-01-29T00:30:32;101084.78;;;-3.71;100.00
68941;BME280;55982;51.476;7.552;2023-01-29T00:32:57;101077.94;;;-3.72;100.00
68941;BME280;55982;51.476;7.552;2023-01-29T00:35:22;101081.16;;;-3.76;100.00
68941;BME280;55982;51.476;7.552;2023-01-29T00:37:48;101075.22;;;-3.75;100.00
68941;BME280;55982;51.476;7.552;2023-01-29T00:40:13;101077.66;;;-3.78;100.00
68941;BME280;55982;51.476;7.552;2023-01-29T00:42:39;101079.44;;;-3.77;100.00
68941;BME280;55982;51.476;7.552;2023-01-29T00:45:22;101087.88;;;-3.78;100.00
68941;BME280;55982;51.476;7.552;2023-01-29T00:47:48;101086.66;;;-3.66;100.00
68941;BME280;55982;51.476;7.552;2023-01-29T00:50:13;101088.44;;;-3.65;100.00
68941;BME280;55982;51.476;7.552;2023-01-29T00:52:39;101079.94;;;-3.64;100.00
68941;BME280;55982;51.476;7.552;2023-01-29T00:55:08;101085.31;;;-3.58;100.00
68941;BME280;55982;51.476;7.552;2023-01-29T00:57:35;101076.31;;;-3.50;100.00
68941;BME280;55982;51.476;7.552;2023-01-29T01:00:01;101083.13;;;-3.30;100.00
68941;BME280;55982;51.476;7.552;2023-01-29T01:02:27;101088.75;;;-3.39;100.00
68941;BME280;55982;51.476;7.552;2023-01-29T01:05:13;101087.19;;;-3.35;100.00
68941;BME280;55982;51.476;7.552;2023-01-29T01:07:42;101093.72;;;-3.23;100.00
68941;BME280;55982;51.476;7.552;2023-01-29T01:10:12;101095.22;;;-3.26;100.00
68941;BME280;55982;51.476;7.552;2023-01-29T01:13:00;101094.84;;;-3.35;100.00
68941;BME280;55982;51.476;7.552;2023-01-29T01:15:29;101093.13;;;-3.36;100.00
68941;BME280;55982;51.476;7.552;2023-01-29T01:17:57;101087.19;;;-3.35;100.00
68941;BME280;55982;51.476;7.552;2023-01-29T01:20:24;101100.09;;;-3.32;100.00
68941;BME280;55982;51.476;7.552;2023-01-29T01:22:52;101090.00;;;-3.29;100.00
68941;BME280;55982;51.476;7.552;2023-01-29T01:25:17;101095.78;;;-3.33;100.00
68941;BME280;55982;51.476;7.552;2023-01-29T01:27:43;101089.75;;;-3.35;100.00
68941;BME280;55982;51.476;7.552;2023-01-29T01:30:11;101083.13;;;-3.30;100.00
68941;BME280;55982;51.476;7.552;2023-01-29T01:32:37;101074.66;;;-3.29;100.00
68941;BME280;55982;51.476;7.552;2023-01-29T01:35:04;101075.03;;;-3.20;100.00
68941;BME280;55982;51.476;7.552;2023-01-29T01:37:29;101061.19;;;-3.25;100.00
68941;BME280;55982;51.476;7.552;2023-01-29T01:39:55;101044.91;;;-3.27;100.00
68941;BME280;55982;51.476;7.552;2023-01-29T01:42:31;101044.31;;;-3.20;100.00
68941;BME280;55982;51.476;7.552;2023-01-29T01:45:02;101032.47;;;-3.18;100.00
68941;BME280;55982;51.476;7.552;2023-01-29T01:47:33;101028.47;;;-3.32;100.00
68941;BME280;55982;51.476;7.552;2023-01-29T01:50:14;101044.56;;;-3.35;100.00
68941;BME280;55982;51.476;7.552;2023-01-29T01:52:44;101049.06;;;-3.29;100.00
68941;BME280;55982;51.476;7.552;2023-01-29T01:55:13;101036.84;;;-3.36;100.00
68941;BME280;55982;51.476;7.552;2023-01-29T01:57:44;101046.13;;;-3.38;100.00
68941;BME280;55982;51.476;7.552;2023-01-29T02:00:14;101045.31;;;-3.37;100.00
68941;BME280;55982;51.476;7.552;2023-01-29T02:02:43;101050.44;;;-3.37;100.00
68941;BME280;55982;51.476;7.552;2023-01-29T02:05:31;101052.09;;;-3.38;100.00
68941;BME280;55982;51.476;7.552;2023-01-29T02:08:31;101050.94;;;-3.46;100.00
68941;BME280;55982;51.476;7.552;2023-01-29T02:11:18;101058.53;;;-3.47;100.00
68941;BME280;55982;51.476;7.552;2023-01-29T02:13:44;101051.94;;;-3.42;100.00
68941;BME280;55982;51.476;7.552;2023-01-29T02:16:09;101056.63;;;-3.51;100.00
68941;BME280;55982;51.476;7.552;2023-01-29T02:18:34;101060.03;;;-3.52;100.00
68941;BME280;55982;51.476;7.552;2023-01-29T02:24:17;101053.56;;;-3.44;100.00
68941;BME280;55982;51.476;7.552;2023-01-29T02:27:11;101061.22;;;-3.44;100.00
68941;BME280;55982;51.476;7.552;2023-01-29T02:29:51;101070.00;;;-3.38;100.00
68941;BME280;55982;51.476;7.552;2023-01-29T02:32:33;101069.53;;;-3.29;100.00
68941;BME280;55982;51.476;7.552;2023-01-29T02:35:10;101075.78;;;-3.23;100.00
68941;BME280;55982;51.476;7.552;2023-01-29T02:41:07;101063.31;;;-3.15;100.00
68941;BME280;55982;51.476;7.552;2023-01-29T02:46:22;101069.97;;;-3.19;100.00
68941;BME280;55982;51.476;7.552;2023-01-29T02:49:15;101072.03;;;-3.10;100.00
68941;BME280;55982;51.476;7.552;2023-01-29T02:52:03;101078.97;;;-3.08;100.00
68941;BME280;55982;51.476;7.552;2023-01-29T02:57:04;101073.19;;;-3.04;100.00
68941;BME280;55982;51.476;7.552;2023-01-29T02:59:38;101078.22;;;-3.05;100.00
68941;BME280;55982;51.476;7.552;2023-01-29T03:02:14;101082.53;;;-3.04;100.00
68941;BME280;55982;51.476;7.552;2023-01-29T03:04:48;101078.53;;;-3.18;100.00
68941;BME280;55982;51.476;7.552;2023-01-29T03:07:24;101075.84;;;-3.21;100.00
68941;BME280;55982;51.476;7.552;2023-01-29T03:10:27;101078.53;;;-3.18;100.00
68941;BME280;55982;51.476;7.552;2023-01-29T03:13:00;101077.84;;;-3.14;100.00
68941;BME280;55982;51.476;7.552;2023-01-29T03:15:32;101077.28;;;-3.07;100.00
68941;BME280;55982;51.476;7.552;2023-01-29T03:18:13;101062.56;;;-2.92;100.00
68941;BME280;55982;51.476;7.552;2023-01-29T03:20:45;101073.16;;;-2.83;100.00
68941;BME280;55982;51.476;7.552;2023-01-29T03:23:18;101068.34;;;-2.75;100.00
68941;BME280;55982;51.476;7.552;2023-01-29T03:25:57;101063.44;;;-2.71;100.00
68941;BME280;55982;51.476;7.552;2023-01-29T03:28:42;101059.44;;;-2.63;100.00
68941;BME280;55982;51.476;7.552;2023-01-29T03:31:28;101048.41;;;-2.62;100.00
68941;BME280;55982;51.476;7.552;2023-01-29T03:34:16;101057.66;;;-2.65;100.00
68941;BME280;55982;51.476;7.552;2023-01-29T03:36:53;101061.25;;;-2.60;100.00
68941;BME280;55982;51.476;7.552;2023-01-29T03:39:20;101062.16;;;-2.60;100.00
68941;BME280;55982;51.476;7.552;2023-01-29T03:42:04;101062.41;;;-2.54;100.00
68941;BME280;55982;51.476;7.552;2023-01-29T03:47:37;101055.50;;;-2.55;100.00
68941;BME280;55982;51.476;7.552;2023-01-29T03:55:51;101046.66;;;-2.41;100.00
68941;BME280;55982;51.476;7.552;2023-01-29T03:58:28;101033.72;;;-2.44;100.00
68941;BME280;55982;51.476;7.552;2023-01-29T04:03:38;101022.25;;;-2.53;100.00
68941;BME280;55982;51.476;7.552;2023-01-29T04:06:16;101028.03;;;-2.59;100.00
68941;BME280;55982;51.476;7.552;2023-01-29T04:09:02;101038.28;;;-2.59;100.00
68941;BME280;55982;51.476;7.552;2023-01-29T04:11:30;101024.13;;;-2.49;100.00
68941;BME280;55982;51.476;7.552;2023-01-29T04:13:57;101016.16;;;-2.57;100.00
68941;BME280;55982;51.476;7.552;2023-01-29T04:16:27;101025.31;;;-2.63;100.00
68941;BME280;55982;51.476;7.552;2023-01-29T04:18:55;101020.94;;;-2.66;100.00
68941;BME280;55982;51.476;7.552;2023-01-29T04:21:21;101017.44;;;-2.68;100.00
68941;BME280;55982;51.476;7.552;2023-01-29T04:23:47;101022.44;;;-2.71;100.00
68941;BME280;55982;51.476;7.552;2023-01-29T04:31:13;101005.81;;;-2.60;100.00
68941;BME280;55982;51.476;7.552;2023-01-29T04:34:01;101012.78;;;-2.56;100.00
68941;BME280;55982;51.476;7.552;2023-01-29T04:36:44;101011.50;;;-2.45;100.00
68941;BME280;55982;51.476;7.552;2023-01-29T04:42:05;101001.34;;;-2.42;100.00
68941;BME280;55982;51.476;7.552;2023-01-29T04:44:42;100996.22;;;-2.42;100.00
68941;BME280;55982;51.476;7.552;2023-01-29T04:50:02;100989.47;;;-2.40;100.00
68941;BME280;55982;51.476;7.552;2023-01-29T04:52:59;100996.59;;;-2.33;100.00
68941;BME280;55982;51.476;7.552;2023-01-29T05:00:53;100984.91;;;-2.25;100.00
68941;BME280;55982;51.476;7.552;2023-01-29T05:03:21;100984.22;;;-2.21;100.00
68941;BME280;55982;51.476;7.552;2023-01-29T05:05:49;100978.38;;;-2.17;100.00
68941;BME280;55982;51.476;7.552;2023-01-29T05:08:18;100981.88;;;-2.15;100.00
68941;BME280;55982;51.476;7.552;2023-01-29T05:10:46;100972.50;;;-2.14;100.00
68941;BME280;55982;51.476;7.552;2023-01-29T05:13:13;100964.84;;;-2.13;100.00
68941;BME280;55982;51.476;7.552;2023-01-29T05:15:43;100942.63;;;-2.14;100.00
68941;BME280;55982;51.476;7.552;2023-01-29T05:18:12;100946.91;;;-2.13;100.00
68941;BME280;55982;51.476;7.552;2023-01-29T05:20:39;100946.91;;;-2.13;100.00
68941;BME280;55982;51.476;7.552;2023-01-29T05:23:23;100943.47;;;-2.13;100.00
68941;BME280;55982;51.476;7.552;2023-01-29T05:25:50;100941.06;;;-2.09;100.00
68941;BME280;55982;51.476;7.552;2023-01-29T05:28:16;100931.72;;;-2.08;100.00
68941;BME280;55982;51.476;7.552;2023-01-29T05:30:52;100930.72;;;-2.12;100.00
68941;BME280;55982;51.476;7.552;2023-01-29T05:33:21;100935.97;;;-2.09;100.00
68941;BME280;55982;51.476;7.552;2023-01-29T05:35:48;100949.78;;;-2.04;100.00
68941;BME280;55982;51.476;7.552;2023-01-29T05:38:14;100943.94;;;-2.00;100.00
68941;BME280;55982;51.476;7.552;2023-01-29T05:40:39;100938.91;;;-1.98;100.00
68941;BME280;55982;51.476;7.552;2023-01-29T05:43:13;100938.06;;;-1.97;100.00
68941;BME280;55982;51.476;7.552;2023-01-29T05:45:39;100935.50;;;-1.97;100.00
68941;BME280;55982;51.476;7.552;2023-01-29T05:48:04;100938.13;;;-1.96;100.00
68941;BME280;55982;51.476;7.552;2023-01-29T05:50:30;100949.91;;;-2.01;100.00
68941;BME280;55982;51.476;7.552;2023-01-29T05:52:59;100947.97;;;-2.08;100.00
68941;BME280;55982;51.476;7.552;2023-01-29T05:55:26;100953.91;;;-2.09;100.00
68941;BME280;55982;51.476;7.552;2023-01-29T05:57:51;100958.09;;;-2.11;100.00
68941;BME280;55982;51.476;7.552;2023-01-29T06:00:17;100964.84;;;-2.13;100.00
68941;BME280;55982;51.476;7.552;2023-01-29T06:02:43;100973.38;;;-2.14;100.00
68941;BME280;55982;51.476;7.552;2023-01-29T06:05:08;100982.00;;;-2.12;100.00
68941;BME280;55982;51.476;7.552;2023-01-29T06:07:34;100976.97;;;-2.09;100.00
68941;BME280;55982;51.476;7.552;2023-01-29T06:10:00;100983.03;;;-2.07;100.00
68941;BME280;55982;51.476;7.552;2023-01-29T06:12:26;100982.22;;;-2.06;100.00
68941;BME280;55982;51.476;7.552;2023-01-29T06:14:51;101000.97;;;-2.07;100.00
68941;BME280;55982;51.476;7.552;2023-01-29T06:17:17;100999.66;;;-1.96;100.00
68941;BME280;55982;51.476;7.552;2023-01-29T06:19:42;100997.16;;;-1.94;100.00
68941;BME280;55982;51.476;7.552;2023-01-29T06:22:07;100995.50;;;-1.92;100.00
68941;BME280;55982;51.476;7.552;2023-01-29T06:24:33;101000.00;;;-1.87;100.00
68941;BME280;55982;51.476;7.552;2023-01-29T06:26:58;101003.81;;;-1.75;100.00
68941;BME280;55982;51.476;7.552;2023-01-29T06:29:25;100997.78;;;-1.76;100.00
68941;BME280;55982;51.476;7.552;2023-01-29T06:31:50;100997.84;;;-1.74;100.00
68941;BME280;55982;51.476;7.552;2023-01-29T06:34:16;100999.81;;;-1.67;100.00
68941;BME280;55982;51.476;7.552;2023-01-29T06:36:41;101000.63;;;-1.68;100.00
68941;BME280;55982;51.476;7.552;2023-01-29T06:39:07;100993.03;;;-1.65;100.00
68941;BME280;55982;51.476;7.552;2023-01-29T06:41:33;100982.84;;;-1.64;100.00
68941;BME280;55982;51.476;7.552;2023-01-29T06:43:58;100978.66;;;-1.60;100.00
68941;BME280;55982;51.476;7.552;2023-01-29T06:46:24;100987.28;;;-1.58;100.00
68941;BME280;55982;51.476;7.552;2023-01-29T06:48:49;100997.66;;;-1.55;100.00
68941;BME280;55982;51.476;7.552;2023-01-29T06:51:14;101000.13;;;-1.58;100.00
68941;BME280;55982;51.476;7.552;2023-01-29T06:53:40;100996.97;;;-1.50;100.00
68941;BME280;55982;51.476;7.552;2023-01-29T06:56:05;100996.00;;;-1.53;100.00
68941;BME280;55982;51.476;7.552;2023-01-29T06:58:31;101001.25;;;-1.50;100.00
68941;BME280;55982;51.476;7.552;2023-01-29T07:01:04;101001.34;;;-1.47;100.00
68941;BME280;55982;51.476;7.552;2023-01-29T07:03:30;101011.59;;;-1.47;100.00
68941;BME280;55982;51.476;7.552;2023-01-29T07:05:56;101010.09;;;-1.42;100.00
68941;BME280;55982;51.476;7.552;2023-01-29T07:08:21;101006.69;;;-1.41;100.00
68941;BME280;55982;51.476;7.552;2023-01-29T07:10:48;100997.19;;;-1.44;100.00
68941;BME280;55982;51.476;7.552;2023-01-29T07:13:13;101010.09;;;-1.42;100.00
68941;BME280;55982;51.476;7.552;2023-01-29T07:15:39;101011.91;;;-1.38;100.00
68941;BME280;55982;51.476;7.552;2023-01-29T07:18:04;100991.59;;;-1.32;100.00
68941;BME280;55982;51.476;7.552;2023-01-29T07:20:37;100984.72;;;-1.33;100.00
68941;BME280;55982;51.476;7.552;2023-01-29T07:23:03;100996.59;;;-1.37;100.00
68941;BME280;55982;51.476;7.552;2023-01-29T07:25:28;101005.25;;;-1.33;100.00
68941;BME280;55982;51.476;7.552;2023-01-29T07:27:54;101009.69;;;-1.29;100.00
68941;BME280;55982;51.476;7.552;2023-01-29T07:30:20;100998.69;;;-1.25;100.00
68941;BME280;55982;51.476;7.552;2023-01-29T07:32:45;100990.09;;;-1.26;100.00
68941;BME280;55982;51.476;7.552;2023-01-29T07:35:11;100990.88;;;-1.28;100.00
68941;BME280;55982;51.476;7.552;2023-01-29T07:37:36;100985.00;;;-1.24;100.00
68941;BME280;55982;51.476;7.552;2023-01-29T07:40:02;100978.97;;;-1.26;100.00
68941;BME280;55982;51.476;7.552;2023-01-29T07:42:29;100990.09;;;-1.26;100.00
68941;BME280;55982;51.476;7.552;2023-01-29T07:44:54;100993.63;;;-1.22;100.00
68941;BME280;55982;51.476;7.552;2023-01-29T07:47:20;100984.09;;;-1.26;100.00
68941;BME280;55982;51.476;7.552;2023-01-29T07:49:45;100987.63;;;-1.23;100.00
68941;BME280;55982;51.476;7.552;2023-01-29T07:52:11;100985.00;;;-1.24;100.00
68941;BME280;55982;51.476;7.552;2023-01-29T07:54:36;100980.91;;;-1.19;100.00
68941;BME280;55982;51.476;7.552;2023-01-29T07:57:01;100983.56;;;-1.16;100.00
68941;BME280;55982;51.476;7.552;2023-01-29T07:59:27;100978.53;;;-1.13;100.00
68941;BME280;55982;51.476;7.552;2023-01-29T08:01:52;100975.16;;;-1.12;100.00
68941;BME280;55982;51.476;7.552;2023-01-29T08:04:17;100963.31;;;-1.07;100.00
68941;BME280;55982;51.476;7.552;2023-01-29T08:06:43;100960.03;;;-1.03;100.00
68941;BME280;55982;51.476;7.552;2023-01-29T08:09:09;100953.25;;;-1.01;100.00
68941;BME280;55982;51.476;7.552;2023-01-29T08:11:34;100956.00;;;-0.95;100.00
68941;BME280;55982;51.476;7.552;2023-01-29T08:14:00;100953.50;;;-0.92;100.00
68941;BME280;55982;51.476;7.552;2023-01-29T08:16:25;100960.31;;;-0.94;100.00
68941;BME280;55982;51.476;7.552;2023-01-29T08:18:50;100961.41;;;-0.86;100.00
68941;BME280;55982;51.476;7.552;2023-01-29T08:21:16;100951.88;;;-0.90;100.00
68941;BME280;55982;51.476;7.552;2023-01-29T08:23:41;100950.34;;;-0.85;100.00
68941;BME280;55982;51.476;7.552;2023-01-29T08:26:07;100960.50;;;-0.88;100.00
68941;BME280;55982;51.476;7.552;2023-01-29T08:28:32;100954.63;;;-0.84;100.00
68941;BME280;55982;51.476;7.552;2023-01-29T08:30:59;100956.31;;;-0.84;100.00
68941;BME280;55982;51.476;7.552;2023-01-29T08:33:24;100975.59;;;-0.70;100.00
68941;BME280;55982;51.476;7.552;2023-01-29T08:35:52;100969.88;;;-0.62;100.00
68941;BME280;55982;51.476;7.552;2023-01-29T08:38:18;100974.06;;;-0.65;100.00
68941;BME280;55982;51.476;7.552;2023-01-29T08:40:43;100969.69;;;-0.68;100.00
68941;BME280;55982;51.476;7.552;2023-01-29T08:43:10;100963.63;;;-0.70;100.00
68941;BME280;55982;51.476;7.552;2023-01-29T08:45:39;100962.72;;;-0.72;100.00
68941;BME280;55982;51.476;7.552;2023-01-29T08:48:05;100952.50;;;-0.69;100.00
68941;BME280;55982;51.476;7.552;2023-01-29T08:50:31;100946.59;;;-0.66;100.00
68941;BME280;55982;51.476;7.552;2023-01-29T08:53:04;100939.09;;;-0.60;100.00
68941;BME280;55982;51.476;7.552;2023-01-29T08:55:33;100921.09;;;-0.60;100.00
68941;BME280;55982;51.476;7.552;2023-01-29T08:57:59;100928.19;;;-0.52;100.00
68941;BME280;55982;51.476;7.552;2023-01-29T09:00:24;100933.91;;;-0.62;100.00
68941;BME280;55982;51.476;7.552;2023-01-29T09:02:50;100928.94;;;-0.56;100.00
68941;BME280;55982;51.476;7.552;2023-01-29T09:05:15;100928.25;;;-0.50;100.00
68941;BME280;55982;51.476;7.552;2023-01-29T09:07:41;100922.59;;;-0.39;100.00
68941;BME280;55982;51.476;7.552;2023-01-29T09:10:07;100922.78;;;-0.33;100.00
68941;BME280;55982;51.476;7.552;2023-01-29T09:12:32;100913.06;;;-0.12;100.00
68941;BME280;55982;51.476;7.552;2023-01-29T09:14:58;100906.41;;;-0.04;100.00
68941;BME280;55982;51.476;7.552;2023-01-29T09:17:23;100908.56;;;0.13;100.00
68941;BME280;55982;51.476;7.552;2023-01-29T09:19:48;100901.81;;;0.18;100.00
68941;BME280;55982;51.476;7.552;2023-01-29T09:22:16;100906.31;;;0.25;100.00
68941;BME280;55982;51.476;7.552;2023-01-29T09:24:41;100908.88;;;0.25;100.00
68941;BME280;55982;51.476;7.552;2023-01-29T09:27:07;100912.72;;;0.40;100.00
68941;BME280;55982;51.476;7.552;2023-01-29T09:29:34;100905.03;;;0.42;100.00
68941;BME280;55982;51.476;7.552;2023-01-29T09:31:59;100897.88;;;0.66;100.00
68941;BME280;55982;51.476;7.552;2023-01-29T09:34:24;100905.84;;;0.75;100.00
68941;BME280;55982;51.476;7.552;2023-01-29T09:36:51;100905.13;;;0.82;100.00
68941;BME280;55982;51.476;7.552;2023-01-29T09:39:16;100901.72;;;0.83;100.00
68941;BME280;55982;51.476;7.552;2023-01-29T09:47:23;100892.66;;;1.40;100.00
68941;BME280;55982;51.476;7.552;2023-01-29T09:53:38;100893.78;;;1.11;100.00
68941;BME280;55982;51.476;7.552;2023-01-29T09:56:10;100889.88;;;0.91;100.00
68941;BME280;55982;51.476;7.552;2023-01-29T09:58:41;100890.50;;;0.81;100.00
68941;BME280;55982;51.476;7.552;2023-01-29T10:01:49;100894.22;;;0.92;100.00
68941;BME280;55982;51.476;7.552;2023-01-29T10:21:15;100889.88;;;1.30;100.00
68941;BME280;55982;51.476;7.552;2023-01-29T10:24:05;100897.50;;;1.25;100.00
68941;BME280;55982;51.476;7.552;2023-01-29T10:26:34;100892.81;;;1.46;100.00
68941;BME280;55982;51.476;7.552;2023-01-29T10:29:06;100897.91;;;1.43;100.00
68941;BME280;55982;51.476;7.552;2023-01-29T10:31:34;100893.09;;;1.61;100.00
68941;BME280;55982;51.476;7.552;2023-01-29T10:36:46;100889.25;;;1.84;100.00
68941;BME280;55982;51.476;7.552;2023-01-29T10:39:16;100877.09;;;1.77;100.00
68941;BME280;55982;51.476;7.552;2023-01-29T10:44:47;100880.78;;;1.90;100.00
68941;BME280;55982;51.476;7.552;2023-01-29T10:55:50;100835.84;;;1.79;100.00
68941;BME280;55982;51.476;7.552;2023-01-29T10:58:55;100840.09;;;1.75;100.00
68941;BME280;55982;51.476;7.552;2023-01-29T11:01:23;100841.38;;;1.99;100.00
68941;BME280;55982;51.476;7.552;2023-01-29T11:03:55;100837.38;;;2.17;100.00
68941;BME280;55982;51.476;7.552;2023-01-29T11:06:30;100831.63;;;2.32;100.00
68941;BME280;55982;51.476;7.552;2023-01-29T11:11:45;100814.78;;;2.03;100.00
68941;BME280;55982;51.476;7.552;2023-01-29T11:14:20;100827.78;;;2.09;100.00
68941;BME280;55982;51.476;7.552;2023-01-29T11:16:47;100829.84;;;1.78;100.00
68941;BME280;55982;51.476;7.552;2023-01-29T11:19:13;100833.41;;;1.86;100.00
68941;BME280;55982;51.476;7.552;2023-01-29T11:21:56;100828.47;;;1.99;100.00
68941;BME280;55982;51.476;7.552;2023-01-29T11:24:22;100830.97;;;1.94;100.00
68941;BME280;55982;51.476;7.552;2023-01-29T11:26:49;100831.44;;;1.73;100.00
68941;BME280;55982;51.476;7.552;2023-01-29T11:29:30;100824.72;;;1.81;100.00
68941;BME280;55982;51.476;7.552;2023-01-29T11:31:58;100819.91;;;1.53;100.00
68941;BME280;55982;51.476;7.552;2023-01-29T11:34:25;100820.03;;;1.59;100.00
68941;BME280;55982;51.476;7.552;2023-01-29T11:37:03;100809.75;;;1.62;100.00
68941;BME280;55982;51.476;7.552;2023-01-29T11:39:30;100808.09;;;1.64;100.00
68941;BME280;55982;51.476;7.552;2023-01-29T11:42:03;100802.06;;;1.65;100.00
68941;BME280;55982;51.476;7.552;2023-01-29T11:47:25;100789.63;;;1.91;100.00
68941;BME280;55982;51.476;7.552;2023-01-29T11:49:53;100788.97;;;2.03;100.00
68941;BME280;55982;51.476;7.552;2023-01-29T11:52:22;100783.81;;;2.03;100.00
68941;BME280;55982;51.476;7.552;2023-01-29T11:55:02;100770.81;;;1.98;100.00
68941;BME280;55982;51.476;7.552;2023-01-29T11:57:54;100759.75;;;2.04;100.00
68941;BME280;55982;51.476;7.552;2023-01-29T12:00:25;100752.50;;;1.81;100.00
68941;BME280;55982;51.476;7.552;2023-01-29T12:05:37;100743.19;;;1.91;100.00
68941;BME280;55982;51.476;7.552;2023-01-29T12:08:14;100742.97;;;1.76;100.00
68941;BME280;55982;51.476;7.552;2023-01-29T12:10:41;100737.13;;;1.88;100.00
68941;BME280;55982;51.476;7.552;2023-01-29T12:15:42;100734.81;;;2.04;100.00
68941;BME280;55982;51.476;7.552;2023-01-29T12:20:44;100718.31;;;1.93;100.00
68941;BME280;55982;51.476;7.552;2023-01-29T12:23:29;100706.97;;;1.83;100.00
68941;BME280;55982;51.476;7.552;2023-01-29T12:26:17;100706.72;;;1.68;100.00
68941;BME280;55982;51.476;7.552;2023-01-29T12:29:04;100688.88;;;1.80;100.00
68941;BME280;55982;51.476;7.552;2023-01-29T12:36:46;100665.03;;;1.97;100.00
68941;BME280;55982;51.476;7.552;2023-01-29T12:39:18;100661.31;;;1.79;100.00
68941;BME280;55982;51.476;7.552;2023-01-29T12:41:53;100655.47;;;1.88;100.00
68941;BME280;55982;51.476;7.552;2023-01-29T12:44:32;100646.16;;;2.01;100.00
68941;BME280;55982;51.476;7.552;2023-01-29T12:47:01;100647.75;;;1.93;100.00
68941;BME280;55982;51.476;7.552;2023-01-29T12:49:29;100646.06;;;1.95;100.00
68941;BME280;55982;51.476;7.552;2023-01-29T12:54:38;100640.72;;;1.82;100.00
68941;BME280;55982;51.476;7.552;2023-01-29T13:00:05;100630.59;;;1.95;100.00
68941;BME280;55982;51.476;7.552;2023-01-29T13:02:48;100632.34;;;1.96;100.00
68941;BME280;55982;51.476;7.552;2023-01-29T13:05:44;100629.69;;;1.93;100.00
68941;BME280;55982;51.476;7.552;2023-01-29T13:08:10;100632.28;;;1.93;100.00
68941;BME280;55982;51.476;7.552;2023-01-29T13:10:42;100627.22;;;1.99;100.00
68941;BME280;55982;51.476;7.552;2023-01-29T13:13:25;100620.16;;;1.85;100.00
68941;BME280;55982;51.476;7.552;2023-01-29T13:15:52;100614.78;;;1.70;100.00
68941;BME280;55982;51.476;7.552;2023-01-29T13:18:36;100616.59;;;1.77;100.00
68941;BME280;55982;51.476;7.552;2023-01-29T13:21:04;100608.97;;;1.86;100.00
68941;BME280;55982;51.476;7.552;2023-01-29T13:23:44;100611.50;;;1.80;100.00
68941;BME280;55982;51.476;7.552;2023-01-29T13:26:11;100613.19;;;1.78;100.00
68941;BME280;55982;51.476;7.552;2023-01-29T13:28:38;100601.31;;;1.90;100.00
68941;BME280;55982;51.476;7.552;2023-01-29T13:31:32;100607.25;;;1.85;100.00
68941;BME280;55982;51.476;7.552;2023-01-29T13:36:55;100620.25;;;1.93;100.00
68941;BME280;55982;51.476;7.552;2023-01-29T13:39:29;100618.41;;;1.84;100.00
68941;BME280;55982;51.476;7.552;2023-01-29T13:41:57;100618.50;;;1.91;100.00
68941;BME280;55982;51.476;7.552;2023-01-29T13:44:27;100611.50;;;1.80;100.00
68941;BME280;55982;51.476;7.552;2023-01-29T13:46:59;100618.38;;;1.81;100.00
68941;BME280;55982;51.476;7.552;2023-01-29T13:49:51;100616.59;;;1.77;100.00
68941;BME280;55982;51.476;7.552;2023-01-29T13:52:33;100611.41;;;1.74;100.00
68941;BME280;55982;51.476;7.552;2023-01-29T13:55:07;100616.66;;;1.80;100.00
68941;BME280;55982;51.476;7.552;2023-01-29T14:10:34;100607.25;;;1.84;100.00
68941;BME280;55982;51.476;7.552;2023-01-29T14:15:27;100603.47;;;1.62;100.00
68941;BME280;55982;51.476;7.552;2023-01-29T14:20:30;100601.66;;;1.55;100.00
68941;BME280;55982;51.476;7.552;2023-01-29T14:22:58;100597.28;;;1.51;100.00
68941;BME280;55982;51.476;7.552;2023-01-29T14:25:33;100606.06;;;1.62;100.00
68941;BME280;55982;51.476;7.552;2023-01-29T14:28:00;100599.09;;;1.58;100.00
68941;BME280;55982;51.476;7.552;2023-01-29T14:30:31;100610.22;;;1.56;100.00
68941;BME280;55982;51.476;7.552;2023-01-29T14:32:58;100609.31;;;1.52;100.00
68941;BME280;55982;51.476;7.552;2023-01-29T14:35:28;100611.06;;;1.53;100.00
68941;BME280;55982;51.476;7.552;2023-01-29T14:38:01;100604.91;;;1.44;100.00
68941;BME280;55982;51.476;7.552;2023-01-29T14:40:29;100611.75;;;1.43;100.00
68941;BME280;55982;51.476;7.552;2023-01-29T14:43:07;100593.75;;;1.46;100.00
68941;BME280;55982;51.476;7.552;2023-01-29T14:45:44;100602.28;;;1.42;100.00
68941;BME280;55982;51.476;7.552;2023-01-29T14:53:18;100599.50;;;1.29;100.00
68941;BME280;55982;51.476;7.552;2023-01-29T14:55:57;100604.63;;;1.27;100.00
68941;BME280;55982;51.476;7.552;2023-01-29T14:58:46;100598.66;;;1.31;100.00
68941;BME280;55982;51.476;7.552;2023-01-29T15:01:36;100590.03;;;1.29;100.00
68941;BME280;55982;51.476;7.552;2023-01-29T15:04:05;100587.50;;;1.31;100.00
68941;BME280;55982;51.476;7.552;2023-01-29T15:06:51;100584.88;;;1.29;100.00
68941;BME280;55982;51.476;7.552;2023-01-29T15:09:56;100593.50;;;1.30;100.00
68941;BME280;55982;51.476;7.552;2023-01-29T15:12:32;100584.03;;;1.29;100.00